createdAt,value
2023-04-07T00:01:00.179Z,25.4991
2023-04-07T00:02:02.302Z,25.4955
2023-04-07T00:03:04.332Z,25.4981
2023-04-07T00:04:06.524Z,25.4870
2023-04-07T00:05:08.575Z,25.4665
2023-04-07T00:06:10.454Z,25.4619
2023-04-07T00:07:12.508Z,25.4923
2023-04-07T00:08:14.563Z,25.4648
2023-04-07T00:09:16.628Z,25.4347
2023-04-07T00:10:18.665Z,25.4909
2023-04-07T00:11:20.744Z,25.4911
2023-04-07T00:12:22.780Z,25.4704
2023-04-07T00:13:24.833Z,25.4795
2023-04-07T00:14:26.893Z,25.4901
2023-04-07T00:15:28.938Z,25.5083
2023-04-07T00:16:31.020Z,25.5023
2023-04-07T00:17:33.061Z,25.4887
2023-04-07T00:18:35.119Z,25.4969
2023-04-07T00:19:37.173Z,25.5110
2023-04-07T00:20:39.216Z,25.4880
2023-04-07T00:21:41.277Z,25.4681
2023-04-07T00:22:43.368Z,25.4959
2023-04-07T00:23:45.414Z,25.5079
2023-04-07T00:24:47.493Z,25.4828
2023-04-07T00:25:49.539Z,25.4861
2023-04-07T00:26:51.579Z,25.4854
2023-04-07T00:27:53.639Z,25.4905
2023-04-07T00:28:55.692Z,25.5244
2023-04-07T00:29:57.777Z,25.5683
2023-04-07T00:30:59.822Z,25.5962
2023-04-07T00:32:01.871Z,25.5754
2023-04-07T00:33:03.938Z,25.5677
2023-04-07T00:34:05.972Z,25.5465
2023-04-07T00:35:08.052Z,25.5200
2023-04-07T00:36:10.113Z,25.5031
2023-04-07T00:37:12.147Z,25.5375
2023-04-07T00:38:14.201Z,25.5217
2023-04-07T00:39:16.257Z,25.5803
2023-04-07T00:40:18.313Z,25.5563
2023-04-07T00:41:20.376Z,25.5218
2023-04-07T00:42:22.442Z,25.5039
2023-04-07T00:43:24.481Z,25.5019
2023-04-07T00:44:26.541Z,25.4961
2023-04-07T00:45:28.617Z,25.5048
2023-04-07T00:46:30.713Z,25.5184
2023-04-07T00:47:32.749Z,25.5496
2023-04-07T00:48:34.763Z,25.5126
2023-04-07T00:49:36.840Z,25.5145
2023-04-07T00:50:38.868Z,25.5275
2023-04-07T00:51:40.926Z,25.5374
2023-04-07T00:52:42.976Z,25.5539
2023-04-07T00:53:45.032Z,25.5434
2023-04-07T00:54:47.108Z,25.5022
2023-04-07T00:55:49.162Z,25.5073
2023-04-07T00:56:51.201Z,25.4843
2023-04-07T00:57:53.242Z,25.4857
2023-04-07T00:58:55.296Z,25.5146
2023-04-07T00:59:57.354Z,25.5282
2023-04-07T01:00:59.428Z,25.5477
2023-04-07T01:02:01.526Z,25.5505
2023-04-07T01:03:03.688Z,25.5461
2023-04-07T01:04:05.680Z,25.5781
2023-04-07T01:05:07.781Z,25.5700
2023-04-07T01:06:09.718Z,25.5870
2023-04-07T01:07:11.766Z,25.5806
2023-04-07T01:08:13.800Z,25.5691
2023-04-07T01:09:15.861Z,25.5692
2023-04-07T01:10:17.916Z,25.5657
2023-04-07T01:11:19.977Z,25.5806
2023-04-07T01:12:22.027Z,25.5823
2023-04-07T01:13:24.107Z,25.5756
2023-04-07T01:14:26.141Z,25.5567
2023-04-07T01:15:28.203Z,25.5495
2023-04-07T01:16:30.377Z,25.5745
2023-04-07T01:17:32.332Z,25.5711
2023-04-07T01:18:34.373Z,25.5734
2023-04-07T01:19:36.431Z,25.5785
2023-04-07T01:20:38.485Z,25.5895
2023-04-07T01:21:40.554Z,25.5945
2023-04-07T01:22:42.599Z,25.5937
2023-04-07T01:23:44.655Z,25.5854
2023-04-07T01:24:46.715Z,25.5748
2023-04-07T01:25:48.772Z,25.5798
2023-04-07T01:26:50.834Z,25.5683
2023-04-07T01:27:52.900Z,25.6098
2023-04-07T01:28:54.955Z,25.6164
2023-04-07T01:29:57.008Z,25.6399
2023-04-07T01:30:59.085Z,25.6598
2023-04-07T01:32:01.177Z,25.6808
2023-04-07T01:33:03.294Z,25.6474
2023-04-07T01:34:05.269Z,25.6470
2023-04-07T01:35:07.327Z,25.6530
2023-04-07T01:36:09.390Z,25.6484
2023-04-07T01:37:11.498Z,25.6557
2023-04-07T01:38:13.502Z,25.6715
2023-04-07T01:39:15.575Z,25.6566
2023-04-07T01:40:17.623Z,25.6570
2023-04-07T01:41:19.686Z,25.6537
2023-04-07T01:42:21.747Z,25.6779
2023-04-07T01:43:23.788Z,25.6859
2023-04-07T01:44:25.851Z,25.6799
2023-04-07T01:45:27.920Z,25.6922
2023-04-07T01:46:29.966Z,25.6884
2023-04-07T01:47:32.075Z,25.6922
2023-04-07T01:48:34.076Z,25.7177
2023-04-07T01:49:36.149Z,25.7092
2023-04-07T01:50:38.170Z,25.7152
2023-04-07T01:51:40.225Z,25.7332
2023-04-07T01:52:42.298Z,25.7120
2023-04-07T01:53:44.338Z,25.7009
2023-04-07T01:54:46.396Z,25.7057
2023-04-07T01:55:48.455Z,25.7292
2023-04-07T01:56:50.522Z,25.7531
2023-04-07T01:57:52.583Z,25.7541
2023-04-07T01:58:54.647Z,25.7581
2023-04-07T01:59:56.696Z,25.7478
2023-04-07T02:00:58.766Z,25.7233
2023-04-07T02:02:00.911Z,25.7734
2023-04-07T02:03:03.043Z,25.7694
2023-04-07T02:04:04.963Z,25.7887
2023-04-07T02:05:07.019Z,25.7900
2023-04-07T02:06:11.560Z,25.7653
2023-04-07T02:07:15.476Z,25.7685
2023-04-07T02:08:19.373Z,25.7743
2023-04-07T02:09:23.277Z,25.7805
2023-04-07T02:10:27.182Z,25.7795
2023-04-07T02:11:31.074Z,25.7557
2023-04-07T02:12:34.985Z,25.7853
2023-04-07T02:13:38.921Z,25.8071
2023-04-07T02:14:42.815Z,25.8368
2023-04-07T02:15:46.838Z,25.8450
2023-04-07T02:16:50.770Z,25.8138
2023-04-07T02:17:54.748Z,25.8381
2023-04-07T02:18:58.688Z,25.8315
2023-04-07T02:20:02.594Z,25.8690
2023-04-07T02:21:06.485Z,25.8735
2023-04-07T02:22:10.390Z,25.8442
2023-04-07T02:23:14.300Z,25.8731
2023-04-07T02:24:18.202Z,25.8933
2023-04-07T02:25:22.425Z,25.9130
2023-04-07T02:26:26.325Z,25.9058
2023-04-07T02:27:30.225Z,25.9092
2023-04-07T02:28:34.133Z,25.8860
2023-04-07T02:29:38.039Z,25.8657
2023-04-07T02:30:41.944Z,25.8779
2023-04-07T02:31:45.922Z,25.8277
2023-04-07T02:32:49.943Z,25.8555
2023-04-07T02:33:53.959Z,25.8630
2023-04-07T02:34:57.929Z,25.8611
2023-04-07T02:36:01.852Z,25.8665
2023-04-07T02:37:05.803Z,25.8888
2023-04-07T02:38:09.662Z,25.9208
2023-04-07T02:39:13.549Z,25.8989
2023-04-07T02:40:17.433Z,25.8778
2023-04-07T02:41:21.324Z,25.9347
2023-04-07T02:42:25.192Z,25.9650
2023-04-07T02:43:29.090Z,25.9618
2023-04-07T02:44:32.994Z,25.9497
2023-04-07T02:45:36.873Z,25.9606
2023-04-07T02:46:40.751Z,25.9546
2023-04-07T02:47:44.700Z,25.9585
2023-04-07T02:48:48.537Z,25.9525
2023-04-07T02:49:52.426Z,25.9252
2023-04-07T02:50:56.329Z,25.9336
2023-04-07T02:52:00.198Z,25.9564
2023-04-07T02:53:04.086Z,25.9674
2023-04-07T02:54:08.004Z,25.9826
2023-04-07T02:55:11.854Z,25.9773
2023-04-07T02:56:15.733Z,25.9495
2023-04-07T02:57:19.609Z,25.9288
2023-04-07T02:58:23.573Z,25.9372
2023-04-07T02:59:27.455Z,25.9341
2023-04-07T03:00:31.556Z,25.9401
2023-04-07T03:01:35.488Z,25.9834
2023-04-07T03:02:39.567Z,25.9854
2023-04-07T03:03:43.618Z,25.9476
2023-04-07T03:04:47.496Z,25.9813
2023-04-07T03:05:51.384Z,25.9728
2023-04-07T03:06:55.271Z,25.9583
2023-04-07T03:07:59.158Z,25.9588
2023-04-07T03:09:03.041Z,25.9730
2023-04-07T03:10:06.928Z,25.9645
2023-04-07T03:11:10.816Z,26.0056
2023-04-07T03:12:14.704Z,26.0157
2023-04-07T03:13:18.947Z,26.0676
2023-04-07T03:14:22.848Z,26.0924
2023-04-07T03:15:26.972Z,26.0516
2023-04-07T03:16:30.897Z,26.0277
2023-04-07T03:17:34.835Z,26.0292
2023-04-07T03:18:38.810Z,26.0501
2023-04-07T03:19:42.708Z,26.0515
2023-04-07T03:20:46.606Z,25.9976
2023-04-07T03:21:50.513Z,25.9687
2023-04-07T03:22:54.438Z,25.9468
2023-04-07T03:23:58.350Z,25.9486
2023-04-07T03:25:02.517Z,25.9890
2023-04-07T03:26:06.422Z,25.9801
2023-04-07T03:27:10.334Z,25.9845
2023-04-07T03:28:14.239Z,25.9307
2023-04-07T03:29:18.142Z,25.9230
2023-04-07T03:30:22.041Z,25.9279
2023-04-07T03:31:25.977Z,25.9748
2023-04-07T03:32:29.898Z,25.9378
2023-04-07T03:33:33.785Z,25.9448
2023-04-07T03:34:37.698Z,25.9658
2023-04-07T03:35:41.865Z,25.9584
2023-04-07T03:36:45.751Z,25.9902
2023-04-07T03:37:49.780Z,25.9679
2023-04-07T03:38:53.677Z,25.9426
2023-04-07T03:39:57.597Z,25.9672
2023-04-07T03:41:01.485Z,25.9408
2023-04-07T03:42:05.419Z,25.9225
2023-04-07T03:43:09.316Z,25.9229
2023-04-07T03:44:13.227Z,25.8803
2023-04-07T03:45:17.363Z,25.8635
2023-04-07T03:46:21.265Z,25.8634
2023-04-07T03:47:25.169Z,25.8640
2023-04-07T03:48:29.387Z,25.8963
2023-04-07T03:49:33.251Z,25.9194
2023-04-07T03:50:37.135Z,25.9375
2023-04-07T03:51:41.040Z,25.9157
2023-04-07T03:52:44.904Z,25.9183
2023-04-07T03:53:48.780Z,25.9131
2023-04-07T03:54:52.680Z,25.9424
2023-04-07T03:55:56.781Z,25.9036
2023-04-07T03:57:00.650Z,25.8783
2023-04-07T03:58:04.769Z,25.8812
2023-04-07T03:59:08.650Z,25.9274
2023-04-07T04:00:12.560Z,25.9775
2023-04-07T04:01:16.411Z,25.9815
2023-04-07T04:02:20.434Z,25.9621
2023-04-07T04:03:24.690Z,25.9723
2023-04-07T04:04:28.646Z,25.9553
2023-04-07T04:05:32.825Z,25.9599
2023-04-07T04:06:36.689Z,25.9579
2023-04-07T04:07:40.591Z,25.9014
2023-04-07T04:08:44.477Z,25.9439
2023-04-07T04:09:48.369Z,25.9442
2023-04-07T04:10:52.272Z,25.9372
2023-04-07T04:11:56.162Z,25.9586
2023-04-07T04:13:00.294Z,25.9341
2023-04-07T04:14:04.178Z,25.9388
2023-04-07T04:15:08.067Z,25.9152
2023-04-07T04:16:14.513Z,25.9373
2023-04-07T04:17:13.693Z,25.9451
2023-04-07T04:18:17.575Z,26.0285
2023-04-07T04:19:21.463Z,26.1774
2023-04-07T04:20:25.615Z,26.2290
2023-04-07T04:21:29.531Z,26.3593
2023-04-07T04:22:33.414Z,26.5567
2023-04-07T04:23:37.325Z,26.6745
2023-04-07T04:24:41.235Z,26.6536
2023-04-07T04:25:45.142Z,26.6833
2023-04-07T04:26:49.044Z,26.7267
2023-04-07T04:27:52.949Z,26.7250
2023-04-07T04:28:56.871Z,26.7436
2023-04-07T04:30:00.760Z,26.7381
2023-04-07T04:31:04.700Z,26.7817
2023-04-07T04:32:08.651Z,26.7784
2023-04-07T04:33:12.561Z,26.7480
2023-04-07T04:34:16.482Z,26.8365
2023-04-07T04:35:20.384Z,26.8424
2023-04-07T04:36:24.304Z,26.9006
2023-04-07T04:37:28.194Z,26.9153
2023-04-07T04:38:32.100Z,26.9432
2023-04-07T04:39:36.008Z,26.9552
2023-04-07T04:40:39.906Z,26.9796
2023-04-07T04:41:43.810Z,27.0314
2023-04-07T04:42:47.768Z,27.0962
2023-04-07T04:43:51.663Z,27.1202
2023-04-07T04:44:55.577Z,27.1715
2023-04-07T04:45:59.495Z,27.1647
2023-04-07T04:47:03.454Z,27.1824
2023-04-07T04:48:07.397Z,27.1533
2023-04-07T04:49:11.284Z,27.1839
2023-04-07T04:50:15.198Z,27.2209
2023-04-07T04:51:19.107Z,27.2618
2023-04-07T04:52:23.037Z,27.2755
2023-04-07T04:53:26.931Z,27.3003
2023-04-07T04:54:30.806Z,27.2872
2023-04-07T04:55:34.701Z,27.2859
2023-04-07T04:56:38.566Z,27.3093
2023-04-07T04:57:42.441Z,27.3045
2023-04-07T04:58:46.511Z,27.2822
2023-04-07T04:59:50.533Z,27.3150
2023-04-07T05:00:54.449Z,27.3547
2023-04-07T05:01:58.401Z,27.4112
2023-04-07T05:03:02.542Z,27.4713
2023-04-07T05:04:06.629Z,27.4695
2023-04-07T05:05:10.653Z,27.5303
2023-04-07T05:06:14.514Z,27.5995
2023-04-07T05:07:18.392Z,27.6741
2023-04-07T05:08:22.290Z,27.7507
2023-04-07T05:09:26.191Z,27.7763
2023-04-07T05:10:30.290Z,27.8434
2023-04-07T05:11:34.173Z,27.9267
2023-04-07T05:12:38.070Z,27.8906
2023-04-07T05:13:41.943Z,27.9436
2023-04-07T05:14:45.827Z,28.0048
2023-04-07T05:15:49.750Z,28.0133
2023-04-07T05:16:53.613Z,27.9538
2023-04-07T05:17:57.556Z,27.9273
2023-04-07T05:19:01.423Z,27.9419
2023-04-07T05:20:05.286Z,27.9697
2023-04-07T05:21:09.163Z,27.9750
2023-04-07T05:22:13.044Z,27.9648
2023-04-07T05:23:16.942Z,28.0269
2023-04-07T05:24:20.818Z,28.0419
2023-04-07T05:25:24.721Z,28.0785
2023-04-07T05:26:28.616Z,28.0476
2023-04-07T05:27:32.493Z,28.0400
2023-04-07T05:28:36.426Z,28.0645
2023-04-07T05:29:40.311Z,28.0442
2023-04-07T05:30:44.214Z,28.0475
2023-04-07T05:31:48.143Z,28.0758
2023-04-07T05:32:52.101Z,28.0973
2023-04-07T05:33:55.996Z,28.0943
2023-04-07T05:34:59.899Z,28.0587
2023-04-07T05:36:03.832Z,28.0639
2023-04-07T05:37:07.738Z,28.0419
2023-04-07T05:38:11.648Z,28.0348
2023-04-07T05:39:15.604Z,28.0193
2023-04-07T05:40:19.512Z,28.0523
2023-04-07T05:41:23.408Z,28.0664
2023-04-07T05:42:27.314Z,28.0622
2023-04-07T05:43:31.485Z,28.0301
2023-04-07T05:44:35.383Z,28.0662
2023-04-07T05:45:39.499Z,28.0439
2023-04-07T05:46:43.388Z,28.0259
2023-04-07T05:47:47.428Z,28.0082
2023-04-07T05:48:51.359Z,28.0409
2023-04-07T05:49:55.291Z,28.0088
2023-04-07T05:50:59.205Z,27.9943
2023-04-07T05:52:03.093Z,27.9739
2023-04-07T05:53:07.005Z,27.9699
2023-04-07T05:54:10.915Z,27.9765
2023-04-07T05:55:14.801Z,27.9582
2023-04-07T05:56:18.698Z,27.9795
2023-04-07T05:57:22.745Z,27.9536
2023-04-07T05:58:26.638Z,27.9622
2023-04-07T05:59:30.547Z,27.9197
2023-04-07T06:00:34.768Z,27.9131
2023-04-07T06:01:38.798Z,27.9014
2023-04-07T06:02:42.976Z,27.8665
2023-04-07T06:03:47.059Z,27.9004
2023-04-07T06:04:51.135Z,27.9085
2023-04-07T06:05:54.987Z,27.8668
2023-04-07T06:06:58.878Z,27.8604
2023-04-07T06:08:02.759Z,27.8260
2023-04-07T06:09:07.776Z,27.8579
2023-04-07T06:10:06.834Z,27.8470
2023-04-07T06:11:10.742Z,27.8379
2023-04-07T06:12:14.629Z,27.8421
2023-04-07T06:13:18.646Z,27.8331
2023-04-07T06:14:22.526Z,27.8236
2023-04-07T06:15:26.413Z,27.8281
2023-04-07T06:16:30.319Z,27.8515
2023-04-07T06:17:34.263Z,27.8838
2023-04-07T06:18:38.141Z,27.9077
2023-04-07T06:19:42.025Z,27.8815
2023-04-07T06:20:45.930Z,27.8998
2023-04-07T06:21:49.842Z,27.9204
2023-04-07T06:22:53.737Z,27.9235
2023-04-07T06:23:57.651Z,27.9535
2023-04-07T06:25:01.562Z,27.9746
2023-04-07T06:26:05.583Z,27.8678
2023-04-07T06:27:09.475Z,27.8745
2023-04-07T06:28:13.423Z,27.8901
2023-04-07T06:29:17.342Z,27.8567
2023-04-07T06:30:21.226Z,27.8564
2023-04-07T06:31:25.203Z,27.8644
2023-04-07T06:32:29.125Z,27.8871
2023-04-07T06:33:33.016Z,27.8489
2023-04-07T06:34:36.923Z,27.8126
2023-04-07T06:35:40.830Z,27.7949
2023-04-07T06:36:46.017Z,27.7568
2023-04-07T06:37:45.187Z,27.7523
2023-04-07T06:38:49.072Z,27.7521
2023-04-07T06:39:52.949Z,27.7513
2023-04-07T06:40:56.836Z,27.7548
2023-04-07T06:42:00.710Z,27.7470
2023-04-07T06:43:04.597Z,27.7070
2023-04-07T06:44:09.633Z,27.7022
2023-04-07T06:45:13.565Z,27.6691
2023-04-07T06:46:17.513Z,27.6322
2023-04-07T06:47:21.418Z,27.5874
2023-04-07T06:48:25.530Z,27.5957
2023-04-07T06:49:29.416Z,27.5850
2023-04-07T06:50:33.306Z,27.5821
2023-04-07T06:51:37.184Z,27.5544
2023-04-07T06:52:41.082Z,27.5372
2023-04-07T06:53:44.950Z,27.5265
2023-04-07T06:54:48.848Z,27.5141
2023-04-07T06:55:52.748Z,27.5305
2023-04-07T06:56:56.622Z,27.5883
2023-04-07T06:58:00.501Z,27.6088
2023-04-07T06:59:04.639Z,27.6095
2023-04-07T07:00:08.665Z,27.6237
2023-04-07T07:01:12.544Z,27.6375
2023-04-07T07:02:16.755Z,27.6373
2023-04-07T07:03:21.059Z,27.6448
2023-04-07T07:04:25.238Z,27.6875
2023-04-07T07:05:29.180Z,27.7133
2023-04-07T07:06:33.080Z,27.8686
2023-04-07T07:07:36.954Z,27.8044
2023-04-07T07:08:40.833Z,27.7593
2023-04-07T07:09:44.728Z,27.6571
2023-04-07T07:10:48.623Z,27.6374
2023-04-07T07:11:52.529Z,27.6070
2023-04-07T07:12:56.442Z,27.6722
2023-04-07T07:14:00.667Z,27.8227
2023-04-07T07:15:04.577Z,27.9371
2023-04-07T07:16:08.843Z,27.9844
2023-04-07T07:17:12.751Z,28.0490
2023-04-07T07:18:16.656Z,28.1099
2023-04-07T07:19:20.562Z,28.1408
2023-04-07T07:20:24.468Z,28.1872
2023-04-07T07:21:28.379Z,28.2333
2023-04-07T07:22:32.291Z,28.2661
2023-04-07T07:23:36.196Z,28.2518
2023-04-07T07:24:40.114Z,28.2597
2023-04-07T07:25:44.026Z,28.2736
2023-04-07T07:26:47.938Z,28.3290
2023-04-07T07:27:51.829Z,28.3534
2023-04-07T07:28:55.735Z,28.3721
2023-04-07T07:29:59.654Z,28.4344
2023-04-07T07:31:03.603Z,28.4635
2023-04-07T07:32:07.480Z,28.5320
2023-04-07T07:33:11.402Z,28.5456
2023-04-07T07:34:15.309Z,28.5495
2023-04-07T07:35:19.234Z,28.5561
2023-04-07T07:36:23.172Z,28.5527
2023-04-07T07:37:27.062Z,28.5567
2023-04-07T07:38:31.049Z,28.5630
2023-04-07T07:39:34.980Z,28.5542
2023-04-07T07:40:39.126Z,28.5541
2023-04-07T07:41:43.027Z,28.5650
2023-04-07T07:42:47.158Z,28.5976
2023-04-07T07:43:51.118Z,28.5993
2023-04-07T07:44:55.006Z,28.6030
2023-04-07T07:45:59.120Z,28.5983
2023-04-07T07:47:03.104Z,28.5953
2023-04-07T07:48:07.012Z,28.5896
2023-04-07T07:49:11.093Z,28.5742
2023-04-07T07:50:14.976Z,28.5763
2023-04-07T07:51:18.870Z,28.5871
2023-04-07T07:52:22.762Z,28.5810
2023-04-07T07:53:26.880Z,28.5829
2023-04-07T07:54:30.755Z,28.5473
2023-04-07T07:55:34.640Z,28.5073
2023-04-07T07:56:38.523Z,28.4738
2023-04-07T07:57:42.412Z,28.4545
2023-04-07T07:58:46.542Z,28.4663
2023-04-07T07:59:50.429Z,28.4429
2023-04-07T08:00:54.477Z,28.4900
2023-04-07T08:01:58.376Z,28.5269
2023-04-07T08:03:02.323Z,28.5630
2023-04-07T08:04:06.255Z,28.5682
2023-04-07T08:05:10.120Z,28.5787
2023-04-07T08:06:13.992Z,28.6369
2023-04-07T08:07:17.866Z,28.6801
2023-04-07T08:08:21.769Z,28.6800
2023-04-07T08:09:25.640Z,28.6983
2023-04-07T08:10:29.529Z,28.6723
2023-04-07T08:11:33.402Z,28.6865
2023-04-07T08:12:37.291Z,28.7240
2023-04-07T08:13:41.179Z,28.6759
2023-04-07T08:14:45.094Z,28.6095
2023-04-07T08:15:48.981Z,28.6267
2023-04-07T08:16:52.872Z,28.6379
2023-04-07T08:17:56.814Z,28.6179
2023-04-07T08:19:00.842Z,28.6168
2023-04-07T08:20:04.752Z,28.5990
2023-04-07T08:21:08.698Z,28.6229
2023-04-07T08:22:12.606Z,28.7372
2023-04-07T08:23:16.514Z,28.7933
2023-04-07T08:24:20.419Z,28.7432
2023-04-07T08:25:24.342Z,28.7739
2023-04-07T08:26:28.236Z,28.7840
2023-04-07T08:27:32.133Z,28.6945
2023-04-07T08:28:36.046Z,28.6205
2023-04-07T08:29:39.963Z,28.6709
2023-04-07T08:30:43.903Z,28.7017
2023-04-07T08:31:47.869Z,28.6172
2023-04-07T08:32:51.764Z,28.6889
2023-04-07T08:33:55.643Z,28.6585
2023-04-07T08:34:59.546Z,28.6730
2023-04-07T08:36:03.497Z,28.6844
2023-04-07T08:37:07.376Z,28.7064
2023-04-07T08:38:11.291Z,28.7015
2023-04-07T08:39:15.195Z,28.6870
2023-04-07T08:40:19.109Z,28.6891
2023-04-07T08:41:23.015Z,28.6858
2023-04-07T08:42:26.926Z,28.6564
2023-04-07T08:43:30.995Z,28.6885
2023-04-07T08:44:34.896Z,28.6531
2023-04-07T08:45:38.789Z,28.6823
2023-04-07T08:46:42.769Z,28.6776
2023-04-07T08:47:46.695Z,28.7540
2023-04-07T08:48:50.571Z,28.7625
2023-04-07T08:49:54.470Z,28.7233
2023-04-07T08:50:58.377Z,28.7832
2023-04-07T08:52:04.077Z,28.8322
2023-04-07T08:53:05.276Z,28.8117
2023-04-07T08:54:05.476Z,28.7866
2023-04-07T08:55:09.350Z,28.7819
2023-04-07T08:56:13.287Z,28.8193
2023-04-07T08:57:17.157Z,28.9038
2023-04-07T08:58:21.022Z,28.9994
2023-04-07T08:59:24.919Z,29.0190
2023-04-07T09:00:28.792Z,29.0536
2023-04-07T09:01:32.883Z,29.1384
2023-04-07T09:02:36.992Z,29.1915
2023-04-07T09:03:40.946Z,29.1768
2023-04-07T09:04:44.801Z,29.1756
2023-04-07T09:05:48.686Z,29.2297
2023-04-07T09:06:52.576Z,29.2232
2023-04-07T09:07:56.474Z,29.2276
2023-04-07T09:09:00.345Z,29.2083
2023-04-07T09:10:04.237Z,29.1969
2023-04-07T09:11:08.896Z,29.2083
2023-04-07T09:12:12.782Z,29.2154
2023-04-07T09:13:16.658Z,29.2930
2023-04-07T09:14:20.534Z,29.3500
2023-04-07T09:15:24.405Z,29.4165
2023-04-07T09:16:28.332Z,29.3823
2023-04-07T09:17:32.193Z,29.3595
2023-04-07T09:18:36.064Z,29.3488
2023-04-07T09:19:39.962Z,29.3660
2023-04-07T09:20:43.812Z,29.4391
2023-04-07T09:21:47.705Z,29.4180
2023-04-07T09:22:51.652Z,29.4575
2023-04-07T09:23:55.523Z,29.5527
2023-04-07T09:24:59.410Z,29.5660
2023-04-07T09:26:03.287Z,29.6452
2023-04-07T09:27:07.185Z,29.6529
2023-04-07T09:28:11.097Z,29.6614
2023-04-07T09:29:14.997Z,29.6750
2023-04-07T09:30:18.898Z,29.7428
2023-04-07T09:31:22.957Z,29.6657
2023-04-07T09:32:27.517Z,29.6145
2023-04-07T09:33:31.423Z,29.6204
2023-04-07T09:34:35.341Z,29.6120
2023-04-07T09:35:39.240Z,29.6503
2023-04-07T09:36:43.157Z,29.6986
2023-04-07T09:37:47.255Z,29.6565
2023-04-07T09:38:51.168Z,29.6827
2023-04-07T09:39:55.084Z,29.7130
2023-04-07T09:40:59.075Z,29.7030
2023-04-07T09:42:03.012Z,29.6293
2023-04-07T09:43:06.915Z,29.6955
2023-04-07T09:44:11.043Z,29.7416
2023-04-07T09:45:23.828Z,29.7098
2023-04-07T09:46:19.722Z,29.7637
2023-04-07T09:47:23.616Z,29.7529
2023-04-07T09:48:27.513Z,29.7705
2023-04-07T09:49:31.597Z,29.8236
2023-04-07T09:50:35.503Z,29.8486
2023-04-07T09:51:40.333Z,29.8188
2023-04-07T09:52:44.238Z,29.8881
2023-04-07T09:53:48.349Z,29.9724
2023-04-07T09:54:52.552Z,29.8483
2023-04-07T09:55:56.455Z,29.8217
2023-04-07T09:57:00.678Z,29.8895
2023-04-07T09:58:04.574Z,29.8840
2023-04-07T09:59:08.478Z,29.8264
2023-04-07T10:00:12.390Z,29.7157
2023-04-07T10:01:16.628Z,29.8007
2023-04-07T10:02:20.617Z,29.8408
2023-04-07T10:03:24.528Z,29.8653
2023-04-07T10:04:29.017Z,29.8674
2023-04-07T10:05:32.925Z,29.8403
2023-04-07T10:06:37.575Z,29.8678
2023-04-07T10:07:42.689Z,29.8330
2023-04-07T10:08:47.313Z,29.8622
2023-04-07T10:09:51.257Z,29.8901
2023-04-07T10:10:55.140Z,29.8166
2023-04-07T10:11:59.026Z,29.8099
2023-04-07T10:13:02.913Z,29.8075
2023-04-07T10:14:07.117Z,29.7986
2023-04-07T10:15:11.007Z,29.7485
2023-04-07T10:16:14.909Z,29.8536
2023-04-07T10:17:19.020Z,29.8435
2023-04-07T10:18:22.883Z,29.7119
2023-04-07T10:19:26.770Z,29.7459
2023-04-07T10:20:30.653Z,29.7072
2023-04-07T10:21:34.809Z,29.7180
2023-04-07T10:22:38.683Z,29.7144
2023-04-07T10:23:42.570Z,29.7285
2023-04-07T10:24:42.892Z,29.7203
2023-04-07T10:25:46.765Z,29.7463
2023-04-07T10:26:50.654Z,29.7185
2023-04-07T10:27:54.538Z,29.6319
2023-04-07T10:28:58.417Z,29.6832
2023-04-07T10:30:02.304Z,29.6705
2023-04-07T10:31:06.222Z,29.6541
2023-04-07T10:32:10.303Z,29.6694
2023-04-07T10:33:14.186Z,29.6496
2023-04-07T10:34:18.062Z,29.6120
2023-04-07T10:35:22.030Z,29.6044
2023-04-07T10:36:26.105Z,29.6253
2023-04-07T10:37:29.994Z,29.6527
2023-04-07T10:38:33.897Z,29.6590
2023-04-07T10:39:38.021Z,29.6791
2023-04-07T10:40:41.924Z,29.5565
2023-04-07T10:41:46.058Z,29.4757
2023-04-07T10:42:49.965Z,29.5238
2023-04-07T10:43:53.874Z,29.6054
2023-04-07T10:44:57.791Z,29.6108
2023-04-07T10:46:01.756Z,29.5991
2023-04-07T10:47:05.676Z,29.5850
2023-04-07T10:48:09.572Z,29.6000
2023-04-07T10:49:14.707Z,29.6030
2023-04-07T10:50:14.265Z,29.6606
2023-04-07T10:51:18.172Z,29.5858
2023-04-07T10:52:22.092Z,29.5855
2023-04-07T10:53:25.971Z,29.6581
2023-04-07T10:54:30.086Z,29.6195
2023-04-07T10:55:33.976Z,29.6311
2023-04-07T10:56:38.196Z,29.6488
2023-04-07T10:57:42.080Z,29.7084
2023-04-07T10:58:45.976Z,29.7561
2023-04-07T10:59:50.164Z,29.8198
2023-04-07T11:00:54.055Z,29.8409
2023-04-07T11:01:58.043Z,29.7688
2023-04-07T11:03:02.098Z,29.7391
2023-04-07T11:04:06.069Z,29.6729
2023-04-07T11:05:09.949Z,29.6508
2023-04-07T11:06:13.859Z,29.6991
2023-04-07T11:07:17.736Z,29.7298
2023-04-07T11:08:21.619Z,29.7826
2023-04-07T11:09:25.733Z,29.7538
2023-04-07T11:10:29.640Z,29.8681
2023-04-07T11:11:33.547Z,29.8866
2023-04-07T11:12:37.564Z,29.9854
2023-04-07T11:13:41.460Z,30.0392
2023-04-07T11:14:45.587Z,29.9898
2023-04-07T11:15:49.518Z,30.0013
2023-04-07T11:16:53.389Z,30.1315
2023-04-07T11:17:57.338Z,30.0687
2023-04-07T11:19:01.231Z,30.1096
2023-04-07T11:20:05.153Z,30.1832
2023-04-07T11:21:09.056Z,30.4367
2023-04-07T11:22:26.292Z,30.4500
2023-04-07T11:23:17.680Z,30.4437
2023-04-07T11:24:21.593Z,30.4512
2023-04-07T11:25:25.519Z,30.4640
2023-04-07T11:26:29.409Z,30.5319
2023-04-07T11:27:33.314Z,30.5987
2023-04-07T11:28:37.221Z,30.6644
2023-04-07T11:29:41.444Z,30.7181
2023-04-07T11:30:45.353Z,30.7174
2023-04-07T11:31:49.356Z,30.7671
2023-04-07T11:32:53.380Z,30.7936
2023-04-07T11:33:57.256Z,30.8605
2023-04-07T11:35:01.168Z,30.8595
2023-04-07T11:36:05.103Z,30.8971
2023-04-07T11:37:09.197Z,30.9539
2023-04-07T11:38:13.104Z,30.9411
2023-04-07T11:39:16.997Z,30.9698
2023-04-07T11:40:20.910Z,31.1124
2023-04-07T11:41:24.819Z,31.1644
2023-04-07T11:42:25.204Z,31.2115
2023-04-07T11:43:29.091Z,31.1546
2023-04-07T11:44:32.989Z,31.1955
2023-04-07T11:45:36.881Z,31.1795
2023-04-07T11:46:40.780Z,31.2000
2023-04-07T11:47:44.676Z,31.1724
2023-04-07T11:48:48.542Z,31.2184
2023-04-07T11:49:52.566Z,31.2323
2023-04-07T11:50:56.440Z,31.3265
2023-04-07T11:52:00.548Z,31.2025
2023-04-07T11:53:04.448Z,31.1997
2023-04-07T11:54:08.328Z,31.1662
2023-04-07T11:55:12.513Z,31.1604
2023-04-07T11:56:16.428Z,31.1549
2023-04-07T11:57:20.296Z,31.0820
2023-04-07T11:58:24.190Z,31.0347
2023-04-07T11:59:28.156Z,31.0810
2023-04-07T12:00:32.052Z,31.1603
2023-04-07T12:01:35.979Z,31.2545
2023-04-07T12:02:40.266Z,31.2712
2023-04-07T12:03:44.277Z,31.2287
2023-04-07T12:04:48.303Z,31.2032
2023-04-07T12:05:52.183Z,31.2182
2023-04-07T12:06:56.067Z,31.1949
2023-04-07T12:07:59.959Z,31.1320
2023-04-07T12:09:03.833Z,31.1266
2023-04-07T12:10:07.729Z,31.1128
2023-04-07T12:11:11.610Z,31.1854
2023-04-07T12:12:15.494Z,31.2011
2023-04-07T12:13:19.381Z,31.1424
2023-04-07T12:14:23.258Z,31.0883
2023-04-07T12:15:27.166Z,31.0544
2023-04-07T12:16:31.063Z,31.0859
2023-04-07T12:17:34.950Z,31.1261
2023-04-07T12:18:38.824Z,31.2025
2023-04-07T12:19:42.733Z,31.2296
2023-04-07T12:20:46.645Z,31.1813
2023-04-07T12:21:50.551Z,31.1537
2023-04-07T12:22:54.693Z,31.2325
2023-04-07T12:23:58.600Z,31.1807
2023-04-07T12:25:02.514Z,31.2001
2023-04-07T12:26:06.453Z,31.1753
2023-04-07T12:27:10.326Z,31.1877
2023-04-07T12:28:14.231Z,31.2008
2023-04-07T12:29:18.126Z,31.2211
2023-04-07T12:30:22.037Z,31.1883
2023-04-07T12:31:25.967Z,31.2910
2023-04-07T12:32:30.108Z,31.2408
2023-04-07T12:33:34.006Z,31.2476
2023-04-07T12:34:38.177Z,31.3153
2023-04-07T12:35:42.129Z,31.2413
2023-04-07T12:36:46.009Z,31.1512
2023-04-07T12:37:50.269Z,31.1868
2023-04-07T12:38:54.154Z,31.2201
2023-04-07T12:39:58.291Z,31.2008
2023-04-07T12:41:02.190Z,31.2437
2023-04-07T12:42:06.417Z,31.2492
2023-04-07T12:43:10.325Z,31.2515
2023-04-07T12:44:14.242Z,31.2909
2023-04-07T12:45:18.130Z,31.3066
2023-04-07T12:46:22.096Z,31.3451
2023-04-07T12:47:26.250Z,31.4071
2023-04-07T12:48:30.141Z,31.3263
2023-04-07T12:49:34.300Z,31.3038